Time;durP1;ratioP1;P1;durP2;ratioP2;P2;SDS_P1;SDS_P2;PMS_P1;PMS_P2;Temp;Humidity;BMP_temperature;BMP_pressure;BME280_temperature;BME280_humidity;BME280_pressure;Samples;Min_cycle;Max_cycle;Signal;HPM_P1;HPM_P2
2022/07/11 00:02:24;;;;;;;16.30;8.90;;;;;;;9.72;100.00;99859.00;4203594;28;23625;-63
2022/07/11 00:04:51;;;;;;;15.57;9.10;;;;;;;9.63;100.00;99855.44;4187572;28;20249;-65
2022/07/11 00:07:17;;;;;;;17.83;9.37;;;;;;;9.64;100.00;99857.06;4195073;28;20244;-63
2022/07/11 00:09:44;;;;;;;13.93;8.33;;;;;;;9.57;100.00;99856.03;4198042;28;20926;-63
2022/07/11 00:12:12;;;;;;;14.97;7.93;;;;;;;9.57;100.00;99856.03;4191514;28;22485;-62
2022/07/11 00:14:39;;;;;;;13.27;6.47;;;;;;;9.55;100.00;99859.81;4193568;28;20338;-63
2022/07/11 00:17:09;;;;;;;9.97;6.73;;;;;;;9.54;100.00;99845.72;4194486;28;20243;-63
2022/07/11 00:19:36;;;;;;;14.87;6.30;;;;;;;9.54;100.00;99853.69;4195557;28;20259;-64
2022/07/11 00:22:03;;;;;;;14.73;6.13;;;;;;;9.48;100.00;99849.81;4186167;28;20271;-65
2022/07/11 00:24:30;;;;;;;15.77;6.00;;;;;;;9.40;100.00;99847.09;4191133;28;20252;-65
2022/07/11 00:26:56;;;;;;;11.97;5.37;;;;;;;9.47;100.00;99849.97;4183939;28;21609;-64
2022/07/11 00:29:23;;;;;;;11.13;4.93;;;;;;;9.45;100.00;99851.94;4194691;28;20410;-63
2022/07/11 00:31:50;;;;;;;11.57;5.27;;;;;;;9.35;100.00;99844.06;4194379;28;20323;-64
2022/07/11 00:34:17;;;;;;;8.17;4.40;;;;;;;9.24;100.00;99844.28;4193576;28;20287;-65
2022/07/11 00:36:44;;;;;;;10.40;5.07;;;;;;;9.22;100.00;99844.41;4187338;28;20331;-62
2022/07/11 00:39:10;;;;;;;9.60;4.83;;;;;;;9.29;100.00;99852.59;4189366;28;21263;-63
2022/07/11 00:41:37;;;;;;;8.00;5.03;;;;;;;9.26;100.00;99839.66;4181350;28;20236;-62
2022/07/11 00:44:04;;;;;;;11.23;4.93;;;;;;;9.27;100.00;99839.50;4194578;28;20250;-62
2022/07/11 00:46:30;;;;;;;14.47;6.40;;;;;;;9.29;100.00;99842.84;4188698;28;20241;-64
2022/07/11 00:48:58;;;;;;;16.13;7.13;;;;;;;9.27;100.00;99839.50;4199286;28;21603;-65
2022/07/11 00:51:24;;;;;;;17.73;6.67;;;;;;;9.29;100.00;99837.53;4173852;28;20244;-62
2022/07/11 00:53:53;;;;;;;11.00;5.07;;;;;;;9.21;100.00;99837.44;4183052;28;21708;-63
2022/07/11 00:56:21;;;;;;;11.87;5.23;;;;;;;9.18;100.00;99845.72;4184076;28;20345;-63
2022/07/11 00:58:48;;;;;;;9.87;4.30;;;;;;;9.19;100.00;99836.75;4142073;28;1358219;-63
2022/07/11 01:01:16;;;;;;;11.07;4.87;;;;;;;9.21;100.00;99837.44;4184718;28;21371;-63
2022/07/11 01:03:42;;;;;;;12.73;4.40;;;;;;;9.07;100.00;99846.75;4187646;28;25441;-63
2022/07/11 01:06:10;;;;;;;10.43;5.03;;;;;;;9.08;100.00;99850.25;4176004;28;20250;-65
2022/07/11 01:08:38;;;;;;;8.63;4.57;;;;;;;9.07;100.00;99845.94;4193385;28;20237;-64
2022/07/11 01:11:12;;;;;;;11.60;4.77;;;;;;;9.04;100.00;99839.09;4161676;28;20305;-64
2022/07/11 01:13:40;;;;;;;11.50;4.80;;;;;;;9.11;100.00;99836.69;4165410;28;22128;-63
2022/07/11 01:16:11;;;;;;;10.07;5.00;;;;;;;9.12;100.00;99851.63;4183171;28;23082;-65
2022/07/11 01:18:37;;;;;;;14.10;5.17;;;;;;;9.06;100.00;99847.75;4190103;28;21781;-64
2022/07/11 01:21:10;;;;;;;10.93;4.50;;;;;;;9.04;100.00;99836.44;4189275;28;25392;-63
2022/07/11 01:23:37;;;;;;;8.67;4.43;;;;;;;8.99;100.00;99837.88;4178910;28;20242;-63
2022/07/11 01:26:04;;;;;;;6.47;3.90;;;;;;;9.04;100.00;99839.09;4178385;28;20275;-64
2022/07/11 01:28:30;;;;;;;9.30;4.20;;;;;;;9.04;100.00;99832.97;4189335;28;23255;-63
2022/07/11 01:30:57;;;;;;;12.33;4.70;;;;;;;8.95;100.00;99829.38;4188735;28;20240;-64
2022/07/11 01:33:23;;;;;;;7.67;3.60;;;;;;;9.00;100.00;99823.63;4194054;28;21142;-63
2022/07/11 01:35:50;;;;;;;10.53;4.67;;;;;;;9.08;100.00;99826.34;4191924;28;22641;-63
2022/07/11 01:38:16;;;;;;;10.47;3.80;;;;;;;9.04;100.00;99822.34;4193339;28;22047;-65
2022/07/11 01:40:43;;;;;;;12.70;4.00;;;;;;;9.02;100.00;99819.00;4198171;28;20250;-63
2022/07/11 01:43:09;;;;;;;6.13;2.87;;;;;;;9.12;100.00;99818.94;4185717;28;20240;-64
2022/07/11 01:45:36;;;;;;;16.90;3.70;;;;;;;9.11;100.00;99818.13;4188247;28;20256;-66
2022/07/11 01:48:03;;;;;;;12.97;4.13;;;;;;;9.10;100.00;99816.41;4173949;28;21787;-63
2022/07/11 01:50:30;;;;;;;12.13;3.30;;;;;;;9.19;100.00;99815.53;4191051;28;20952;-65
2022/07/11 01:52:56;;;;;;;5.97;2.90;;;;;;;9.17;100.00;99812.19;4191250;28;20304;-66
2022/07/11 01:55:23;;;;;;;11.20;3.40;;;;;;;9.11;100.00;99810.16;4183561;28;20440;-65
2022/07/11 01:57:49;;;;;;;9.87;3.73;;;;;;;9.11;100.00;99822.56;4194605;28;21189;-64
2022/07/11 02:00:16;;;;;;;14.83;3.80;;;;;;;9.14;100.00;99807.19;4201638;28;20275;-65
2022/07/11 02:02:42;;;;;;;11.47;4.17;;;;;;;9.12;100.00;99810.97;4203288;28;20240;-62
2022/07/11 02:05:09;;;;;;;10.03;3.93;;;;;;;9.10;100.00;99811.13;4207848;28;20408;-65
2022/07/11 02:10:20;;;;;;;11.73;3.50;;;;;;;9.08;100.00;99811.28;4201387;28;20236;-63
2022/07/11 02:12:47;;;;;;;12.57;4.00;;;;;;;9.08;100.00;99819.25;4207272;28;20240;-63
2022/07/11 02:15:13;;;;;;;9.13;4.07;;;;;;;9.07;100.00;99816.72;4201508;28;20330;-66
2022/07/11 02:17:40;;;;;;;15.53;4.37;;;;;;;9.07;100.00;99814.09;4214359;28;20231;-63
2022/07/11 02:20:07;;;;;;;11.00;6.03;;;;;;;9.09;100.00;99817.41;4205555;28;20233;-65
2022/07/11 02:22:34;;;;;;;28.17;5.20;;;;;;;9.09;100.00;99820.06;4205381;28;20437;-64
2022/07/11 02:25:01;;;;;;;13.97;5.50;;;;;;;9.09;100.00;99814.78;4201154;28;20247;-65
2022/07/11 02:27:27;;;;;;;22.80;5.43;;;;;;;9.08;100.00;99813.09;4188516;28;20835;-65
2022/07/11 02:29:54;;;;;;;22.70;5.60;;;;;;;9.08;100.00;99824.56;4197280;28;21097;-64
2022/07/11 02:32:20;;;;;;;12.40;4.77;;;;;;;9.04;100.00;99822.34;4201039;28;20248;-64
2022/07/11 02:34:47;;;;;;;13.67;4.90;;;;;;;9.01;100.00;99820.84;4196493;28;20252;-66
2022/07/11 02:37:13;;;;;;;12.43;5.70;;;;;;;8.98;100.00;99828.25;4201015;28;20243;-64
2022/07/11 02:39:40;;;;;;;15.50;5.33;;;;;;;9.00;100.00;99823.63;4197731;28;20243;-64
2022/07/11 02:42:07;;;;;;;17.97;5.37;;;;;;;9.03;100.00;99820.66;4215637;28;23671;-64
2022/07/11 02:44:33;;;;;;;20.07;6.50;;;;;;;9.07;100.00;99822.03;4206798;28;20241;-63
2022/07/11 02:47:00;;;;;;;14.37;6.73;;;;;;;9.07;100.00;99824.69;4208625;28;20441;-63
2022/07/11 02:49:26;;;;;;;24.37;5.80;;;;;;;9.03;100.00;99826.81;4209836;28;21823;-63
2022/07/11 02:51:53;;;;;;;14.77;5.60;;;;;;;9.13;100.00;99823.25;4230952;28;20231;-64
2022/07/11 02:54:20;;;;;;;16.20;6.57;;;;;;;9.12;100.00;99818.94;4222318;28;20237;-64
2022/07/11 02:56:46;;;;;;;13.50;6.13;;;;;;;9.14;100.00;99825.75;4199281;28;20235;-63
2022/07/11 02:59:13;;;;;;;15.73;6.27;;;;;;;9.14;100.00;99822.28;4214363;28;20255;-64
2022/07/11 03:01:43;;;;;;;18.47;6.77;;;;;;;9.17;100.00;99830.75;4210309;28;25653;-63
2022/07/11 03:04:10;;;;;;;21.93;6.87;;;;;;;9.19;100.00;99828.78;4200629;28;20251;-63
2022/07/11 03:06:38;;;;;;;12.00;6.27;;;;;;;9.21;100.00;99832.13;4227134;28;20242;-64
2022/07/11 03:09:06;;;;;;;15.03;6.70;;;;;;;9.37;100.00;99839.44;4185778;28;20284;-63
2022/07/11 03:11:34;;;;;;;13.43;6.37;;;;;;;9.43;100.00;99843.28;4208872;28;20329;-64
2022/07/11 03:14:03;;;;;;;16.90;6.67;;;;;;;9.33;100.00;99842.53;4206960;28;20335;-64
2022/07/11 03:16:30;;;;;;;16.57;6.17;;;;;;;9.50;100.00;99839.03;4224266;28;21081;-65
2022/07/11 03:18:57;;;;;;;22.33;6.57;;;;;;;9.52;100.00;99837.88;4217009;28;20236;-63
2022/07/11 03:21:24;;;;;;;14.30;6.07;;;;;;;9.66;100.00;99835.69;4204851;28;20282;-67
2022/07/11 03:23:51;;;;;;;19.87;6.60;;;;;;;9.67;100.00;99843.50;4213547;28;21842;-65
2022/07/11 03:26:18;;;;;;;16.17;6.63;;;;;;;9.68;100.00;99847.81;4215199;28;20431;-63
2022/07/11 03:28:44;;;;;;;23.87;6.70;;;;;;;9.64;100.00;99845.63;4210289;28;20236;-65
2022/07/11 03:31:11;;;;;;;25.60;7.00;;;;;;;9.73;100.00;99848.19;4209716;28;21729;-64
2022/07/11 03:33:38;;;;;;;17.50;6.93;;;;;;;9.77;100.00;99845.25;4225391;28;21202;-64
2022/07/11 03:36:06;;;;;;;18.27;7.43;;;;;;;9.76;100.00;99846.22;4214530;28;20273;-63
2022/07/11 03:38:33;;;;;;;22.17;7.50;;;;;;;9.91;100.00;99847.34;4225550;28;20245;-64
2022/07/11 03:41:00;;;;;;;13.87;6.93;;;;;;;9.98;100.00;99843.06;4223227;28;20688;-64
2022/07/11 03:43:27;;;;;;;18.90;7.73;;;;;;;10.04;100.00;99847.75;4218304;28;20335;-64
2022/07/11 03:45:53;;;;;;;20.13;7.57;;;;;;;10.11;100.00;99843.50;4216452;28;21497;-65
2022/07/11 03:48:20;;;;;;;20.17;7.17;;;;;;;10.21;100.00;99845.19;4216783;28;20243;-63
2022/07/11 03:50:47;;;;;;;21.97;7.83;;;;;;;10.18;100.00;99841.03;4212576;28;20810;-64
2022/07/11 03:53:14;;;;;;;14.97;7.63;;;;;;;10.25;100.00;99838.56;4199457;28;20233;-62
2022/07/11 03:55:41;;;;;;;16.83;6.70;;;;;;;10.44;100.00;99838.41;4197662;28;20252;-62
2022/07/11 03:58:08;;;;;;;16.10;7.17;;;;;;;10.63;100.00;99832.00;4206871;28;20284;-66
2022/07/11 04:00:34;;;;;;;16.97;6.53;;;;;;;10.73;100.00;99842.50;4199182;28;20294;-65
2022/07/11 04:03:01;;;;;;;11.27;7.07;;;;;;;10.85;100.00;99841.22;4185069;28;21583;-64
2022/07/11 04:05:28;;;;;;;18.63;6.67;;;;;;;10.96;100.00;99843.56;4189057;28;25553;-66
2022/07/11 04:07:55;;;;;;;15.93;7.10;;;;;;;11.06;100.00;99842.59;4203322;28;20237;-66
2022/07/11 04:10:21;;;;;;;23.87;7.23;;;;;;;11.21;100.00;99838.28;4186760;28;21598;-65
2022/07/11 04:12:48;;;;;;;19.33;6.23;;;;;;;11.24;100.00;99835.31;4187689;28;20351;-63
2022/07/11 04:15:14;;;;;;;12.17;5.87;;;;;;;11.32;100.00;99826.50;4193775;28;20310;-63
2022/07/11 04:17:41;;;;;;;14.53;6.17;;;;;;;11.57;100.00;99819.38;4196278;28;20276;-64
2022/07/11 04:20:08;;;;;;;10.87;5.90;;;;;;;11.71;100.00;99821.34;4195175;28;21452;-64
2022/07/11 04:22:34;;;;;;;15.73;5.40;;;;;;;11.68;100.00;99811.00;4194180;28;20232;-63
2022/07/11 04:25:01;;;;;;;9.10;4.87;;;;;;;11.75;100.00;99795.19;4185346;28;20236;-64
2022/07/11 04:27:29;;;;;;;10.57;4.93;;;;;;;11.70;100.00;99803.69;4180754;28;21331;-64
2022/07/11 04:29:57;;;;;;;11.83;4.70;;;;;;;11.77;100.00;99810.00;4194347;28;20423;-63
2022/07/11 04:32:24;;;;;;;17.17;5.33;;;;;;;11.83;100.00;99808.50;4190277;28;20629;-63
2022/07/11 04:34:50;;;;;;;12.23;5.77;;;;;;;11.86;100.00;99812.69;4182086;28;20302;-64
2022/07/11 04:37:17;;;;;;;10.17;4.83;;;;;;;11.93;100.00;99816.38;4190411;28;20683;-66
2022/07/11 04:39:46;;;;;;;18.17;4.87;;;;;;;11.94;100.00;99812.69;4219420;28;20238;-64
2022/07/11 04:42:13;;;;;;;11.70;4.57;;;;;;;11.92;100.00;99812.03;4196206;28;20247;-64
2022/07/11 04:44:39;;;;;;;15.27;4.97;;;;;;;11.92;100.00;99801.38;4207432;28;20299;-63
2022/07/11 04:47:06;;;;;;;13.57;4.97;;;;;;;11.96;100.00;99824.00;4213386;28;21860;-64
2022/07/11 04:49:33;;;;;;;23.90;6.17;;;;;;;11.86;100.00;99828.69;4213125;28;20233;-64
2022/07/11 04:51:59;;;;;;;13.63;5.57;;;;;;;11.74;100.00;99825.53;4239718;28;20236;-63
2022/07/11 04:54:28;;;;;;;14.20;6.27;;;;;;;11.71;100.00;99824.03;4235121;28;20391;-64
2022/07/11 04:56:56;;;;;;;10.20;6.07;;;;;;;11.64;100.00;99823.03;4251694;28;20294;-62
2022/07/11 04:59:24;;;;;;;17.33;6.27;;;;;;;11.67;100.00;99825.34;4251836;28;21867;-64
2022/07/11 05:01:51;;;;;;;19.17;7.13;;;;;;;11.61;100.00;99828.66;4247906;28;20329;-66
2022/07/11 05:04:18;;;;;;;17.77;6.10;;;;;;;11.71;100.00;99844.53;4248449;28;25679;-66
2022/07/11 05:06:45;;;;;;;19.87;8.43;;;;;;;11.81;100.00;99843.34;4234238;28;20299;-66
2022/07/11 05:09:12;;;;;;;15.57;6.20;;;;;;;11.88;100.00;99853.38;4274033;28;23612;-66
2022/07/11 05:11:39;;;;;;;12.93;5.80;;;;;;;11.78;100.00;99842.84;4251687;28;20621;-64
2022/07/11 05:14:06;;;;;;;21.37;7.07;;;;;;;11.84;100.00;99847.50;4216235;28;20954;-66
2022/07/11 05:16:33;;;;;;;16.13;6.77;;;;;;;11.95;100.00;99855.19;4238181;28;20564;-65
2022/07/11 05:19:00;;;;;;;18.63;8.67;;;;;;;11.89;100.00;99863.03;4251586;28;25366;-67
2022/07/11 05:21:26;;;;;;;15.17;8.10;;;;;;;11.83;100.00;99857.34;4240125;28;22830;-67
2022/07/11 05:23:53;;;;;;;18.77;8.53;;;;;;;11.79;100.00;99865.81;4227216;28;21392;-64
2022/07/11 05:26:20;;;;;;;20.47;9.13;;;;;;;11.73;100.00;99871.81;4247634;28;22988;-65
2022/07/11 05:28:46;;;;;;;19.80;10.53;;;;;;;11.66;100.00;99858.34;4233311;28;20233;-64
2022/07/11 05:31:13;;;;;;;14.00;10.27;;;;;;;11.70;100.00;99857.00;4205938;28;20232;-66
2022/07/11 05:33:40;;;;;;;22.40;11.83;;;;;;;11.75;100.00;99857.34;4211428;28;21197;-64
2022/07/11 05:36:08;;;;;;;22.03;11.90;;;;;;;11.76;100.00;99868.84;4222999;28;20239;-65
2022/07/11 05:38:34;;;;;;;16.70;9.60;;;;;;;11.78;100.00;99867.66;4217977;28;21946;-64
2022/07/11 05:41:01;;;;;;;17.97;9.83;;;;;;;11.78;100.00;99865.00;4193814;28;20232;-64
2022/07/11 05:43:28;;;;;;;15.77;9.07;;;;;;;11.77;100.00;99857.16;4219597;28;21717;-67
2022/07/11 05:45:55;;;;;;;17.40;7.87;;;;;;;11.87;100.00;99859.66;4210307;28;20237;-64
2022/07/11 05:48:21;;;;;;;15.93;6.80;;;;;;;11.97;100.00;99865.69;4200292;28;20240;-66
2022/07/11 05:50:48;;;;;;;13.40;6.27;;;;;;;12.18;100.00;99866.00;4198213;28;20273;-66
2022/07/11 05:53:15;;;;;;;13.57;6.00;;;;;;;12.36;100.00;99864.94;4197847;28;20334;-67
2022/07/11 05:55:41;;;;;;;11.67;5.70;;;;;;;12.50;100.00;99866.06;4207455;28;23619;-66
2022/07/11 05:58:08;;;;;;;9.57;4.97;;;;;;;12.62;100.00;99868.22;4209433;28;20240;-64
2022/07/11 06:00:34;;;;;;;10.47;5.47;;;;;;;12.85;100.00;99873.66;4209292;28;20296;-65
2022/07/11 06:03:01;;;;;;;10.03;4.10;;;;;;;12.70;100.00;99879.88;4212031;28;20252;-72
2022/07/11 06:05:27;;;;;;;7.47;3.30;;;;;;;12.56;100.00;99876.91;4202929;28;20271;-67
2022/07/11 06:10:39;;;;;;;11.17;3.57;;;;;;;12.39;100.00;99877.97;4216753;28;20362;-71
2022/07/11 06:13:06;;;;;;;13.53;4.37;;;;;;;12.23;100.00;99876.16;4199316;28;20244;-70
2022/07/11 06:15:32;;;;;;;13.27;4.13;;;;;;;12.22;100.00;99883.34;4227559;28;20229;-72
2022/07/11 06:17:59;;;;;;;8.63;5.03;;;;;;;12.14;100.00;99879.84;4198756;28;20236;-72
2022/07/11 06:20:25;;;;;;;12.23;5.13;;;;;;;12.18;100.00;99875.84;4198010;28;20237;-74
2022/07/11 06:22:53;;;;;;;11.93;4.53;;;;;;;12.24;100.00;99881.34;4233220;28;20648;-72
2022/07/11 06:25:19;;;;;;;14.60;5.00;;;;;;;12.29;100.00;99877.31;4224917;28;20246;-72
2022/07/11 06:27:46;;;;;;;8.70;4.47;;;;;;;12.42;100.00;99877.63;4224168;28;20256;-69
2022/07/11 06:30:18;;;;;;;11.20;4.90;;;;;;;12.23;100.00;99874.31;4202431;28;25927;-76
2022/07/11 06:32:45;;;;;;;12.20;5.60;;;;;;;12.20;100.00;99869.31;4200124;28;22990;-67
2022/07/11 06:35:11;;;;;;;18.70;6.57;;;;;;;12.31;100.00;99881.47;4212674;28;21757;-73
2022/07/11 06:37:39;;;;;;;13.10;5.87;;;;;;;12.43;100.00;99881.94;4209478;28;20232;-73
2022/07/11 06:40:09;;;;;;;18.83;6.47;;;;;;;12.34;100.00;99877.63;4205493;28;20364;-73
2022/07/11 06:42:36;;;;;;;17.60;5.83;;;;;;;12.35;100.00;99880.13;4215767;28;20228;-74
2022/07/11 06:45:03;;;;;;;14.60;5.93;;;;;;;12.38;100.00;99878.94;4215208;28;20411;-73
2022/07/11 06:47:32;;;;;;;17.37;5.33;;;;;;;12.39;100.00;99875.31;4226327;28;20298;-74
2022/07/11 06:49:59;;;;;;;13.97;5.70;;;;;;;12.23;100.00;99868.16;4209363;28;20698;-70
2022/07/11 06:52:26;;;;;;;21.33;5.60;;;;;;;12.36;100.00;99878.28;4198559;28;20235;-72
2022/07/11 06:54:52;;;;;;;13.63;5.30;;;;;;;12.54;100.00;99881.56;4206008;28;20241;-75
2022/07/11 06:57:19;;;;;;;11.23;4.77;;;;;;;12.60;100.00;99886.25;4221900;28;20857;-74
2022/07/11 06:59:46;;;;;;;12.33;5.10;;;;;;;12.58;100.00;99885.56;4216469;28;21085;-71
2022/07/11 07:02:13;;;;;;;11.73;5.10;;;;;;;12.48;100.00;99889.44;4192201;28;22641;-72
2022/07/11 07:04:39;;;;;;;12.70;5.17;;;;;;;12.39;100.00;99884.13;4222906;28;20656;-73
2022/07/11 07:07:06;;;;;;;17.30;5.70;;;;;;;12.37;100.00;99879.97;4221811;28;21776;-71
2022/07/11 07:09:33;;;;;;;10.37;5.63;;;;;;;12.53;100.00;99879.09;4201321;28;23067;-69
2022/07/11 07:12:00;;;;;;;11.20;5.57;;;;;;;12.96;100.00;99880.41;4217971;28;20255;-74
2022/07/11 07:14:26;;;;;;;17.33;5.50;;;;;;;13.88;100.00;99877.88;4206317;28;20761;-76
2022/07/11 07:16:53;;;;;;;15.80;6.80;;;;;;;15.21;95.66;99870.88;4213308;28;21290;-74
2022/07/11 07:19:20;;;;;;;13.00;6.13;;;;;;;16.15;90.22;99886.84;4202091;28;20234;-73
2022/07/11 07:21:47;;;;;;;11.00;6.63;;;;;;;16.54;83.45;99890.84;4216579;28;21179;-75
2022/07/11 07:24:14;;;;;;;11.07;6.43;;;;;;;16.00;86.87;99896.84;4209942;28;21141;-51
2022/07/11 07:26:43;;;;;;;13.23;6.73;;;;;;;15.89;87.29;99884.78;4208165;28;20655;-65
2022/07/11 07:29:10;;;;;;;12.27;6.37;;;;;;;16.51;85.76;99887.75;4215329;28;20235;-64
2022/07/11 07:31:37;;;;;;;12.93;6.63;;;;;;;16.61;82.89;99893.56;4210581;28;20234;-66
2022/07/11 07:34:04;;;;;;;11.40;7.20;;;;;;;15.94;83.40;99878.84;4199709;28;20240;-66
2022/07/11 07:36:31;;;;;;;12.10;6.60;;;;;;;15.36;88.51;99884.25;4206474;28;22928;-63
2022/07/11 07:38:58;;;;;;;13.83;6.17;;;;;;;15.54;89.46;99883.81;4207052;28;24110;-65
2022/07/11 07:41:24;;;;;;;9.80;5.53;;;;;;;15.95;86.30;99880.50;4204705;28;20230;-67
2022/07/11 07:43:51;;;;;;;9.53;4.87;;;;;;;15.76;83.59;99876.63;4208897;28;20355;-69
2022/07/11 07:46:17;;;;;;;6.87;4.17;;;;;;;15.36;86.92;99877.03;4198936;28;20283;-75
2022/07/11 07:48:45;;;;;;;9.40;3.57;;;;;;;15.13;88.01;99874.50;4197247;28;21644;-77
2022/07/11 07:51:12;;;;;;;5.53;3.10;;;;;;;15.04;84.65;99875.63;4209943;28;20303;-77
2022/07/11 07:53:39;;;;;;;6.03;3.10;;;;;;;14.94;85.26;99881.28;4207656;28;22223;-75
2022/07/11 07:56:06;;;;;;;8.67;3.50;;;;;;;15.43;84.21;99876.25;4221487;28;20244;-75
2022/07/11 07:58:33;;;;;;;8.73;2.93;;;;;;;16.53;81.07;99885.66;4211063;28;22964;-77
2022/07/11 08:03:45;;;;;;;7.67;2.57;;;;;;;17.89;72.90;99880.41;4220119;28;21803;-72
2022/07/11 08:06:11;;;;;;;5.13;2.07;;;;;;;18.30;66.90;99887.41;4201747;28;20241;-77
2022/07/11 08:08:39;;;;;;;6.30;1.93;;;;;;;19.02;64.86;99890.19;4203106;28;20242;-73
2022/07/11 08:11:06;;;;;;;4.97;1.50;;;;;;;18.79;63.31;99886.09;4205615;28;20236;-76
2022/07/11 08:13:52;;;;;;;5.63;1.67;;;;;;;18.44;66.15;99880.16;4196744;28;20244;-76
2022/07/11 08:16:19;;;;;;;5.63;1.80;;;;;;;18.41;64.44;99876.00;4202681;28;20287;-74
2022/07/11 08:18:46;;;;;;;7.43;1.80;;;;;;;17.81;65.08;99873.34;4203885;28;20255;-75
2022/07/11 08:21:12;;;;;;;3.77;2.03;;;;;;;17.73;65.87;99877.03;4201434;28;20236;-74
2022/07/11 08:23:40;;;;;;;4.37;2.03;;;;;;;18.27;65.01;99885.16;4191597;28;20383;-76
2022/07/11 08:26:07;;;;;;;2.23;1.50;;;;;;;17.93;64.98;99887.00;4208877;28;20962;-75
2022/07/11 08:28:33;;;;;;;2.30;1.50;;;;;;;18.05;65.18;99884.53;4200869;28;20757;-74
2022/07/11 08:31:00;;;;;;;3.50;1.30;;;;;;;17.59;65.12;99890.69;4194358;28;20231;-74
2022/07/11 08:33:26;;;;;;;4.17;1.20;;;;;;;17.37;65.52;99887.31;4206577;28;20425;-74
2022/07/11 08:35:53;;;;;;;2.60;1.00;;;;;;;17.04;63.74;99894.25;4208848;28;20361;-77
2022/07/11 08:38:20;;;;;;;2.93;1.30;;;;;;;17.49;63.91;99888.41;4180366;28;20418;-75
2022/07/11 08:40:49;;;;;;;2.40;1.10;;;;;;;18.22;61.07;99887.66;4184216;28;21122;-74
2022/07/11 08:43:18;;;;;;;8.20;1.30;;;;;;;18.09;62.91;99891.97;4212781;28;25616;-75
2022/07/11 08:45:45;;;;;;;2.53;1.20;;;;;;;18.46;61.62;99895.06;4192022;28;20324;-75
2022/07/11 08:48:12;;;;;;;2.90;1.10;;;;;;;18.29;60.14;99893.84;4202799;28;20233;-76
2022/07/11 08:50:39;;;;;;;3.07;1.10;;;;;;;18.34;60.67;99885.97;4198559;28;20248;-72
2022/07/11 08:53:06;;;;;;;2.57;0.73;;;;;;;18.85;57.14;99896.06;4201414;28;20630;-73
2022/07/11 08:55:40;;;;;;;1.23;0.50;;;;;;;19.23;52.59;99903.34;4201787;28;21179;-73
2022/07/11 08:58:08;;;;;;;1.57;0.43;;;;;;;18.97;54.61;99899.72;4207890;28;20240;-74
2022/07/11 09:00:36;;;;;;;2.80;0.60;;;;;;;18.90;52.99;99904.31;4208521;28;21935;-76
2022/07/11 09:03:06;;;;;;;1.53;0.60;;;;;;;19.10;53.00;99906.09;4213305;28;20279;-77
2022/07/11 09:05:33;;;;;;;1.27;0.60;;;;;;;19.43;53.57;99894.31;4201797;28;20350;-71
2022/07/11 09:08:00;;;;;;;0.47;0.37;;;;;;;19.61;52.20;99906.03;4215247;28;23031;-73
2022/07/11 09:10:27;;;;;;;1.00;0.40;;;;;;;19.71;49.75;99907.47;4205484;28;21185;-73
2022/07/11 09:13:20;;;;;;;4.23;0.57;;;;;;;18.77;51.61;99889.00;4232056;28;21564;-75
2022/07/11 09:15:49;;;;;;;0.90;0.50;;;;;;;18.68;54.25;99884.88;4199828;28;20394;-75
2022/07/11 09:18:26;;;;;;;0.63;0.30;;;;;;;18.79;53.53;99886.09;4221450;28;20684;-77
2022/07/11 09:26:33;;;;;;;0.93;0.40;;;;;;;18.58;53.30;99894.44;4223836;28;20238;-73
2022/07/11 09:29:08;;;;;;;0.80;0.30;;;;;;;18.32;53.41;99891.56;4176576;28;20240;-74
2022/07/11 09:31:37;;;;;;;1.67;0.20;;;;;;;18.16;50.89;99893.84;4189065;28;20237;-73
2022/07/11 09:34:11;;;;;;;0.50;0.30;;;;;;;18.14;51.32;99900.28;4182174;28;20238;-70
2022/07/11 09:36:45;;;;;;;0.20;0.20;;;;;;;18.45;52.58;99896.13;4177845;28;20245;-71
2022/07/11 09:39:17;;;;;;;0.50;0.20;;;;;;;18.36;51.23;99886.59;4212946;28;21264;-73
2022/07/11 09:41:46;;;;;;;0.80;0.30;;;;;;;18.29;53.05;99881.22;4220947;28;22734;-74
2022/07/11 09:44:22;;;;;;;0.30;0.30;;;;;;;18.21;53.00;99883.28;4189168;28;20237;-77
2022/07/11 09:46:51;;;;;;;1.73;0.33;;;;;;;17.87;52.42;99875.22;4203191;28;20351;-72
2022/07/11 09:49:33;;;;;;;0.70;0.50;;;;;;;17.62;55.14;99877.63;4211652;28;20240;-70
2022/07/11 09:52:15;;;;;;;0.97;0.23;;;;;;;17.84;55.27;99875.63;4186737;28;20228;-72
2022/07/11 09:55:00;;;;;;;0.70;0.37;;;;;;;18.31;53.61;99873.75;4205644;28;20243;-70
2022/07/11 09:57:35;;;;;;;2.13;0.30;;;;;;;18.12;53.04;99878.13;4211255;28;20322;-72
2022/07/11 10:00:07;;;;;;;0.87;0.30;;;;;;;18.26;54.34;99881.63;4182451;28;21033;-71
2022/07/11 10:02:34;;;;;;;0.83;0.30;;;;;;;18.58;55.09;99878.25;4198804;28;20378;-73
2022/07/11 10:05:01;;;;;;;1.00;0.33;;;;;;;18.34;52.76;99884.09;4199428;28;23259;-75
2022/07/11 10:07:29;;;;;;;0.60;0.40;;;;;;;18.13;53.79;99882.47;4206344;28;20233;-69
2022/07/11 10:09:57;;;;;;;3.57;0.50;;;;;;;17.70;55.67;99872.06;4203540;28;20908;-74
2022/07/11 10:12:24;;;;;;;1.57;0.80;;;;;;;17.80;56.63;99876.22;4192547;28;23592;-74
2022/07/11 10:14:52;;;;;;;1.03;0.40;;;;;;;17.82;55.75;99869.63;4188596;28;25459;-73
2022/07/11 10:17:30;;;;;;;1.70;0.50;;;;;;;18.05;56.05;99877.31;4192910;28;20244;-72
2022/07/11 10:20:11;;;;;;;0.43;0.40;;;;;;;17.88;57.06;99873.34;4192738;28;21128;-75
2022/07/11 10:22:47;;;;;;;1.13;0.40;;;;;;;18.10;56.47;99877.50;4184311;28;21738;-71
2022/07/11 10:25:19;;;;;;;0.73;0.50;;;;;;;17.94;56.87;99872.53;4186448;28;20352;-63
2022/07/11 10:28:07;;;;;;;4.70;0.43;;;;;;;18.01;57.61;99878.75;4236749;28;22374;-64
2022/07/11 10:30:47;;;;;;;0.30;0.30;;;;;;;18.05;60.71;99874.59;4220095;28;20360;-66
2022/07/11 10:33:18;;;;;;;1.77;0.40;;;;;;;17.73;62.42;99882.41;4216968;28;20248;-66
2022/07/11 10:35:56;;;;;;;2.03;0.50;;;;;;;17.45;64.35;99879.06;4210400;28;20273;-64
2022/07/11 10:38:23;;;;;;;1.67;0.50;;;;;;;17.22;64.58;99877.53;4221296;28;20246;-63
2022/07/11 10:40:58;;;;;;;0.67;0.40;;;;;;;17.46;64.27;99880.72;4201410;28;21564;-64
2022/07/11 10:43:30;;;;;;;0.80;0.40;;;;;;;17.54;65.16;99885.91;4193836;28;20255;-63
2022/07/11 10:46:00;;;;;;;1.10;0.50;;;;;;;17.36;64.53;99893.72;4202875;28;21756;-63
2022/07/11 10:48:29;;;;;;;0.80;0.33;;;;;;;17.35;64.46;99895.59;4215601;28;21527;-62
2022/07/11 10:51:16;;;;;;;3.53;0.60;;;;;;;17.20;65.84;99890.34;4188809;28;20252;-65
2022/07/11 10:53:48;;;;;;;1.27;0.50;;;;;;;16.72;68.80;99890.34;4211369;28;20239;-67
2022/07/11 10:56:37;;;;;;;1.13;0.60;;;;;;;16.20;72.62;99880.88;4190027;28;21792;-64
2022/07/11 10:59:21;;;;;;;3.17;0.50;;;;;;;16.21;73.12;99878.03;4216963;28;20232;-60
2022/07/11 11:02:06;;;;;;;4.57;0.70;;;;;;;16.27;75.67;99876.41;4189866;28;25625;-50
2022/07/11 11:04:47;;;;;;;2.10;0.50;;;;;;;15.82;80.92;99876.66;4190929;28;21750;-66
2022/07/11 11:07:38;;;;;;;2.80;0.53;;;;;;;15.59;82.57;99868.81;4196102;28;20243;-64
2022/07/11 11:10:26;;;;;;;1.50;0.60;;;;;;;15.60;84.12;99865.09;4188584;28;20947;-68
2022/07/11 11:13:04;;;;;;;2.67;0.60;;;;;;;15.81;82.95;99871.50;4187858;28;20241;-66
2022/07/11 11:15:43;;;;;;;2.93;0.87;;;;;;;15.92;85.36;99880.88;4204785;28;20239;-64
2022/07/11 11:18:25;;;;;;;1.27;0.60;;;;;;;16.10;86.66;99881.25;4201519;28;20703;-66
2022/07/11 11:21:09;;;;;;;0.90;0.70;;;;;;;16.43;83.50;99881.47;4198880;28;20324;-67
2022/07/11 11:23:39;;;;;;;3.87;0.70;;;;;;;16.44;80.41;99874.25;4201366;28;20233;-71
2022/07/11 11:26:14;;;;;;;2.13;0.60;;;;;;;16.75;83.44;99878.34;4168497;28;20236;-71
2022/07/11 11:28:57;;;;;;;1.00;0.60;;;;;;;17.03;82.42;99884.50;4186027;28;20264;-71
2022/07/11 11:31:29;;;;;;;1.17;0.70;;;;;;;17.38;78.51;99881.72;4188567;28;20234;-74
2022/07/11 11:33:57;;;;;;;1.57;0.60;;;;;;;17.08;69.16;99884.72;4194801;28;21451;-72
2022/07/11 11:36:25;;;;;;;2.50;0.80;;;;;;;17.32;73.57;99868.25;4204939;28;22221;-71
2022/07/11 11:38:52;;;;;;;3.03;0.50;;;;;;;17.75;69.26;99874.16;4227765;28;25103;-68
2022/07/11 11:41:26;;;;;;;1.10;0.60;;;;;;;17.96;66.74;99878.53;4199652;28;21036;-57
2022/07/11 11:43:54;;;;;;;0.63;0.33;;;;;;;18.31;67.12;99875.63;4194070;28;20234;-69
2022/07/11 11:46:28;;;;;;;1.87;0.40;;;;;;;18.32;60.19;99879.97;4194319;28;21150;-70
2022/07/11 11:48:57;;;;;;;1.00;0.20;;;;;;;18.37;60.78;99861.28;4213306;28;20768;-71